createdAt,value
2017-10-01T00:01:38.515Z,13.10
2017-10-01T00:04:05.579Z,14.20
2017-10-01T00:06:32.227Z,13.17
2017-10-01T00:08:58.904Z,14.77
2017-10-01T00:11:25.575Z,14.10
2017-10-01T00:13:52.221Z,14.13
2017-10-01T00:16:19.190Z,13.57
2017-10-01T00:18:45.848Z,14.40
2017-10-01T00:21:12.513Z,13.00
2017-10-01T00:23:39.185Z,13.50
2017-10-01T00:26:05.856Z,14.13
2017-10-01T00:28:32.532Z,13.77
2017-10-01T00:30:59.229Z,12.00
2017-10-01T00:33:25.881Z,15.00
2017-10-01T00:35:52.522Z,14.53
2017-10-01T00:38:19.217Z,12.50
2017-10-01T00:40:45.872Z,13.33
2017-10-01T00:43:12.529Z,14.13
2017-10-01T00:45:39.197Z,14.37
2017-10-01T00:48:05.844Z,16.20
2017-10-01T00:50:32.516Z,13.73
2017-10-01T00:52:59.209Z,13.30
2017-10-01T00:55:25.980Z,13.13
2017-10-01T00:57:52.635Z,14.07
2017-10-01T01:00:19.283Z,13.90
2017-10-01T01:02:45.951Z,14.17
2017-10-01T01:05:12.596Z,14.33
2017-10-01T01:07:39.566Z,14.63
2017-10-01T01:10:06.217Z,15.73
2017-10-01T01:12:32.872Z,13.90
2017-10-01T01:14:59.563Z,14.93
2017-10-01T01:17:26.231Z,15.70
2017-10-01T01:19:52.897Z,13.70
2017-10-01T01:22:19.574Z,11.57
2017-10-01T01:24:46.272Z,13.57
2017-10-01T01:27:12.916Z,15.87
2017-10-01T01:29:39.561Z,14.33
2017-10-01T01:32:06.235Z,13.70
2017-10-01T01:34:32.899Z,12.80
2017-10-01T01:36:59.571Z,14.30
2017-10-01T01:39:26.351Z,14.43
2017-10-01T01:41:53.002Z,14.60
2017-10-01T01:44:19.653Z,14.40
2017-10-01T01:46:46.347Z,14.60
2017-10-01T01:55:55.599Z,14.23
2017-10-01T01:58:22.360Z,13.93
2017-10-01T02:00:49.008Z,14.50
2017-10-01T02:03:15.660Z,15.70
2017-10-01T02:05:42.711Z,13.70
2017-10-01T02:08:09.622Z,15.07
2017-10-01T02:10:36.305Z,14.40
2017-10-01T02:13:02.980Z,14.00
2017-10-01T02:15:29.650Z,14.23
2017-10-01T02:17:56.331Z,15.10
2017-10-01T02:20:22.987Z,15.03
2017-10-01T02:22:49.659Z,14.33
2017-10-01T02:25:16.336Z,15.47
2017-10-01T02:27:42.985Z,14.27
2017-10-01T02:30:09.664Z,15.90
2017-10-01T02:32:36.340Z,16.93
2017-10-01T02:35:03.016Z,15.60
2017-10-01T02:37:29.668Z,14.40
2017-10-01T02:39:56.355Z,16.43
2017-10-01T02:42:23.017Z,15.23
2017-10-01T02:44:49.767Z,14.53
2017-10-01T02:47:16.452Z,14.60
2017-10-01T02:56:25.768Z,15.20
2017-10-01T02:58:52.415Z,16.40
2017-10-01T03:01:19.099Z,16.50
2017-10-01T03:03:46.119Z,16.70
2017-10-01T03:06:12.767Z,15.33
2017-10-01T03:08:39.420Z,15.90
2017-10-01T03:11:06.104Z,15.27
2017-10-01T03:13:32.748Z,15.47
2017-10-01T03:15:59.416Z,15.83
2017-10-01T03:18:26.078Z,14.73
2017-10-01T03:20:52.739Z,14.90
2017-10-01T03:23:19.431Z,15.07
2017-10-01T03:25:46.077Z,14.67
2017-10-01T03:28:12.744Z,15.63
2017-10-01T03:30:39.409Z,15.10
2017-10-01T03:33:06.114Z,15.70
2017-10-01T03:35:32.861Z,15.63
2017-10-01T03:37:59.508Z,14.57
2017-10-01T03:40:26.348Z,14.07
2017-10-01T03:42:53.001Z,15.10
2017-10-01T03:45:19.640Z,14.73
2017-10-01T03:47:46.579Z,14.93
2017-10-01T03:50:13.224Z,16.23
2017-10-01T03:52:40.165Z,15.07
2017-10-01T03:55:07.110Z,16.80
2017-10-01T03:57:35.619Z,14.77
2017-10-01T04:00:02.269Z,14.70
2017-10-01T04:02:28.945Z,15.77
2017-10-01T04:04:55.596Z,16.20
2017-10-01T04:07:22.573Z,15.67
2017-10-01T04:09:49.220Z,14.57
2017-10-01T04:12:15.860Z,15.13
2017-10-01T04:14:42.799Z,15.50
2017-10-01T04:17:09.450Z,15.57
2017-10-01T04:19:36.099Z,14.20
2017-10-01T04:22:02.775Z,14.20
2017-10-01T04:24:29.420Z,16.77
2017-10-01T04:26:56.411Z,15.03
2017-10-01T04:29:23.059Z,15.00
2017-10-01T04:31:49.709Z,15.97
2017-10-01T04:34:16.382Z,17.57
2017-10-01T04:36:43.178Z,16.57
2017-10-01T04:39:09.840Z,16.33
2017-10-01T04:41:36.497Z,15.60
2017-10-01T04:44:03.167Z,14.33
2017-10-01T04:46:29.815Z,16.07
2017-10-01T04:48:56.483Z,15.47
2017-10-01T04:51:23.165Z,14.10
2017-10-01T04:53:49.812Z,14.33
2017-10-01T04:56:16.486Z,14.03
2017-10-01T04:58:43.142Z,13.97
2017-10-01T05:01:10.488Z,16.27
2017-10-01T05:03:37.169Z,15.17
2017-10-01T05:06:03.823Z,14.50
2017-10-01T05:08:30.471Z,14.40
2017-10-01T05:10:57.143Z,15.07
2017-10-01T05:13:23.813Z,15.03
2017-10-01T05:15:50.508Z,15.97
2017-10-01T05:18:17.404Z,16.40
2017-10-01T05:20:44.049Z,15.23
2017-10-01T05:23:10.703Z,14.07
2017-10-01T05:25:37.628Z,17.67
2017-10-01T05:28:04.278Z,16.57
2017-10-01T05:30:30.954Z,17.33
2017-10-01T05:32:57.633Z,17.20
2017-10-01T05:35:24.305Z,19.57
2017-10-01T05:37:50.964Z,16.50
2017-10-01T05:40:17.781Z,15.93
2017-10-01T05:42:44.432Z,15.20
2017-10-01T05:45:11.083Z,15.63
2017-10-01T05:47:37.745Z,16.07
2017-10-01T05:50:04.397Z,15.37
2017-10-01T05:52:31.394Z,16.27
2017-10-01T05:54:58.044Z,16.07
2017-10-01T05:57:24.687Z,14.73
2017-10-01T05:59:51.643Z,16.53
2017-10-01T06:02:18.292Z,14.17
2017-10-01T06:04:44.943Z,16.10
2017-10-01T06:07:11.751Z,14.03
2017-10-01T06:09:38.393Z,14.90
2017-10-01T06:12:05.076Z,13.43
2017-10-01T06:14:31.748Z,13.63
2017-10-01T06:16:58.435Z,13.97
2017-10-01T06:19:25.465Z,15.27
2017-10-01T06:21:52.116Z,15.93
2017-10-01T06:24:18.760Z,13.37
2017-10-01T06:26:45.695Z,16.27
2017-10-01T06:29:12.346Z,17.40
2017-10-01T06:31:38.999Z,13.53
2017-10-01T06:34:05.713Z,14.17
2017-10-01T06:36:32.360Z,14.40
2017-10-01T06:38:59.008Z,14.00
2017-10-01T06:41:25.685Z,14.80
2017-10-01T06:43:52.380Z,13.23
2017-10-01T06:46:19.028Z,14.27
2017-10-01T06:48:45.674Z,13.50
2017-10-01T06:51:12.347Z,13.63
2017-10-01T06:53:39.005Z,12.60
2017-10-01T06:56:05.672Z,14.93
2017-10-01T06:58:32.317Z,19.07
2017-10-01T07:00:58.994Z,13.93
2017-10-01T07:03:25.657Z,12.47
2017-10-01T07:05:52.331Z,13.63
2017-10-01T07:08:18.975Z,12.07
2017-10-01T07:10:45.645Z,14.00
2017-10-01T07:13:12.463Z,13.30
2017-10-01T07:15:39.112Z,13.50
2017-10-01T07:18:05.774Z,12.60
2017-10-01T07:20:32.448Z,12.87
2017-10-01T07:22:59.088Z,13.17
2017-10-01T07:25:25.754Z,13.53
2017-10-01T07:27:52.408Z,14.60
2017-10-01T07:30:19.371Z,12.90
2017-10-01T07:32:46.030Z,13.40
2017-10-01T07:35:12.675Z,12.90
2017-10-01T07:37:39.345Z,13.73
2017-10-01T07:40:06.003Z,13.30
2017-10-01T07:42:32.688Z,15.30
2017-10-01T07:44:59.332Z,13.83
2017-10-01T07:47:26.008Z,15.57
2017-10-01T07:49:52.681Z,14.53
2017-10-01T07:52:19.328Z,12.13
2017-10-01T07:54:46.008Z,13.80
2017-10-01T07:57:12.652Z,16.87
2017-10-01T07:59:39.304Z,14.03
2017-10-01T08:08:48.946Z,14.60
2017-10-01T08:11:15.596Z,13.50
2017-10-01T08:13:42.261Z,12.17
2017-10-01T08:16:08.907Z,13.83
2017-10-01T08:18:35.725Z,15.00
2017-10-01T08:21:02.375Z,13.50
2017-10-01T08:23:29.019Z,12.67
2017-10-01T08:25:55.968Z,17.93
2017-10-01T08:28:22.631Z,13.57
2017-10-01T08:30:49.276Z,13.03
2017-10-01T08:33:15.957Z,12.70
2017-10-01T08:35:42.609Z,12.43
2017-10-01T08:38:09.270Z,13.13
2017-10-01T08:40:35.936Z,13.90
2017-10-01T08:43:02.584Z,12.30
2017-10-01T08:45:29.236Z,13.47
2017-10-01T08:47:55.911Z,12.57
2017-10-01T08:50:22.560Z,14.13
2017-10-01T08:52:49.225Z,11.27
2017-10-01T08:55:15.880Z,15.33
2017-10-01T08:57:42.571Z,17.03
2017-10-01T09:00:09.228Z,13.33
2017-10-01T09:02:35.905Z,12.50
2017-10-01T09:05:02.716Z,13.43
2017-10-01T09:07:29.374Z,12.50
2017-10-01T09:09:56.024Z,12.60
2017-10-01T09:12:22.692Z,13.03
2017-10-01T09:14:49.340Z,13.47
2017-10-01T09:17:16.340Z,12.63
2017-10-01T09:19:42.983Z,13.90
2017-10-01T09:22:09.636Z,13.20
2017-10-01T09:24:36.316Z,14.43
2017-10-01T09:27:02.965Z,13.70
2017-10-01T09:29:29.636Z,14.40
2017-10-01T09:31:56.292Z,14.17
2017-10-01T09:34:22.960Z,13.63
2017-10-01T09:36:49.604Z,14.40
2017-10-01T09:39:16.300Z,14.90
2017-10-01T09:41:42.981Z,14.10
2017-10-01T09:44:09.632Z,13.37
2017-10-01T09:46:36.846Z,14.50
2017-10-01T09:49:03.486Z,14.63
2017-10-01T09:51:30.136Z,14.20
2017-10-01T09:53:57.174Z,13.23
2017-10-01T09:56:23.825Z,14.90
2017-10-01T09:58:50.468Z,13.10
2017-10-01T10:01:17.406Z,28.27
2017-10-01T10:03:44.052Z,16.30
2017-10-01T10:06:10.697Z,15.70
2017-10-01T10:08:37.371Z,14.30
2017-10-01T10:11:04.015Z,15.70
2017-10-01T10:13:30.668Z,12.10
2017-10-01T10:15:57.339Z,15.03
2017-10-01T10:18:24.260Z,14.10
2017-10-01T10:20:50.915Z,15.50
2017-10-01T10:23:17.563Z,14.00
2017-10-01T10:25:44.646Z,15.73
2017-10-01T10:28:11.304Z,15.97
2017-10-01T10:30:37.965Z,15.77
2017-10-01T10:33:04.862Z,16.40
2017-10-01T10:35:31.506Z,13.83
2017-10-01T10:37:58.145Z,14.27
2017-10-01T10:40:24.818Z,16.20
2017-10-01T10:42:51.502Z,16.33
2017-10-01T10:45:18.148Z,13.93
2017-10-01T10:47:45.007Z,16.53
2017-10-01T10:50:11.661Z,14.67
2017-10-01T10:52:38.314Z,15.63
2017-10-01T10:55:04.984Z,14.90
2017-10-01T10:57:31.633Z,15.00
2017-10-01T10:59:58.625Z,17.30
2017-10-01T11:02:25.370Z,15.87
2017-10-01T11:04:52.020Z,14.60
2017-10-01T11:07:18.708Z,15.60
2017-10-01T11:09:45.353Z,16.70
2017-10-01T11:12:12.243Z,16.20
2017-10-01T11:14:38.888Z,15.53
2017-10-01T11:17:05.532Z,14.93
2017-10-01T11:19:32.196Z,16.40
2017-10-01T11:21:58.850Z,17.40
2017-10-01T11:24:25.540Z,14.97
2017-10-01T11:26:52.189Z,14.90
2017-10-01T11:29:18.856Z,14.30
2017-10-01T11:31:45.504Z,16.27
2017-10-01T11:34:12.184Z,16.67
2017-10-01T11:36:38.864Z,14.87
2017-10-01T11:39:05.541Z,15.10
2017-10-01T11:41:32.184Z,16.13
2017-10-01T11:43:58.855Z,16.33
2017-10-01T11:46:25.892Z,14.67
2017-10-01T11:48:52.537Z,15.10
2017-10-01T11:51:19.188Z,16.67
2017-10-01T11:53:45.859Z,14.60
2017-10-01T11:56:12.507Z,15.70
2017-10-01T11:58:39.163Z,14.53
2017-10-01T12:01:05.842Z,16.37
2017-10-01T12:03:32.517Z,16.23
2017-10-01T12:05:59.165Z,15.87
2017-10-01T12:08:25.836Z,15.97
2017-10-01T12:10:52.516Z,13.80
2017-10-01T12:13:19.158Z,15.80
2017-10-01T12:15:45.810Z,13.80
2017-10-01T12:18:12.971Z,15.87
2017-10-01T12:20:39.815Z,13.97
2017-10-01T12:23:06.662Z,14.80
2017-10-01T12:25:33.372Z,15.83
2017-10-01T12:28:00.017Z,16.30
2017-10-01T12:30:26.702Z,16.13
2017-10-01T12:32:53.340Z,15.20
2017-10-01T12:35:20.007Z,14.13
2017-10-01T12:37:46.658Z,15.53
2017-10-01T12:40:13.355Z,15.13
2017-10-01T12:42:40.004Z,14.90
2017-10-01T12:45:06.735Z,16.63
2017-10-01T12:47:33.451Z,15.90
2017-10-01T12:50:00.107Z,17.33
2017-10-01T12:52:26.783Z,17.67
2017-10-01T12:54:53.455Z,17.47
2017-10-01T12:57:20.115Z,17.53
2017-10-01T12:59:46.783Z,16.00
2017-10-01T13:02:13.444Z,17.10
2017-10-01T13:04:40.371Z,16.40
2017-10-01T13:07:07.043Z,19.97
2017-10-01T13:09:33.733Z,17.20
2017-10-01T13:12:00.408Z,15.87
2017-10-01T13:14:27.220Z,18.27
2017-10-01T13:16:53.873Z,18.63
2017-10-01T13:19:20.531Z,18.07
2017-10-01T13:21:47.204Z,18.17
2017-10-01T13:24:13.851Z,17.53
2017-10-01T13:26:40.651Z,16.47
2017-10-01T13:29:07.315Z,14.80
2017-10-01T13:31:33.967Z,16.00
2017-10-01T13:34:00.660Z,16.00
2017-10-01T13:36:27.315Z,17.57
2017-10-01T13:38:53.958Z,17.20
2017-10-01T13:41:20.630Z,16.53
2017-10-01T13:43:47.433Z,17.70
2017-10-01T13:46:14.083Z,19.77
2017-10-01T13:48:40.741Z,17.57
2017-10-01T13:51:07.407Z,17.80
2017-10-01T13:53:34.080Z,16.53
2017-10-01T13:56:00.724Z,18.17
2017-10-01T13:58:27.589Z,18.73
2017-10-01T14:00:54.339Z,17.50
2017-10-01T14:03:20.984Z,17.20
2017-10-01T14:05:47.652Z,16.67
2017-10-01T14:08:14.302Z,17.30
2017-10-01T14:10:41.104Z,16.80
2017-10-01T14:13:07.758Z,18.57
2017-10-01T14:15:34.406Z,15.23
2017-10-01T14:18:01.085Z,15.40
2017-10-01T14:20:27.744Z,14.57
2017-10-01T14:22:54.409Z,15.17
2017-10-01T14:25:21.084Z,14.00
2017-10-01T14:27:47.768Z,13.47
2017-10-01T14:30:14.416Z,14.57
2017-10-01T14:32:41.075Z,13.10
2017-10-01T14:35:08.118Z,14.10
2017-10-01T14:37:34.762Z,11.80
2017-10-01T14:40:02.298Z,12.30
2017-10-01T14:42:29.623Z,13.43
2017-10-01T14:44:56.283Z,14.60
2017-10-01T14:47:22.992Z,13.43
2017-10-01T14:49:49.641Z,12.63
2017-10-01T14:52:16.291Z,11.77
2017-10-01T14:54:42.967Z,11.90
2017-10-01T14:57:09.607Z,11.27
2017-10-01T14:59:36.477Z,11.57
2017-10-01T15:02:03.125Z,12.50
2017-10-01T15:04:29.806Z,11.97
2017-10-01T15:06:56.465Z,10.70
2017-10-01T15:09:23.141Z,11.03
2017-10-01T15:11:49.783Z,11.20
2017-10-01T15:14:16.448Z,13.73
2017-10-01T15:16:43.116Z,11.40
2017-10-01T15:19:09.790Z,10.83
2017-10-01T15:21:36.455Z,10.57
2017-10-01T15:24:03.500Z,8.93
2017-10-01T15:26:30.244Z,9.27
2017-10-01T15:28:56.904Z,9.60
2017-10-01T15:31:23.589Z,10.97
2017-10-01T15:33:50.267Z,13.77
2017-10-01T15:36:16.957Z,9.53
2017-10-01T15:38:43.616Z,8.50
2017-10-01T15:41:10.300Z,8.80
2017-10-01T15:43:36.940Z,9.50
2017-10-01T15:46:03.588Z,10.00
2017-10-01T15:48:30.278Z,9.83
2017-10-01T15:50:56.924Z,9.30
2017-10-01T15:53:23.595Z,10.23
2017-10-01T15:55:50.241Z,12.47
2017-10-01T15:58:16.914Z,11.63
2017-10-01T16:00:43.563Z,10.60
2017-10-01T16:03:10.570Z,9.30
2017-10-01T16:05:37.217Z,10.80
2017-10-01T16:08:03.875Z,12.00
2017-10-01T16:10:30.585Z,9.83
2017-10-01T16:12:57.233Z,11.20
2017-10-01T16:15:23.896Z,11.13
2017-10-01T16:17:50.571Z,10.30
2017-10-01T16:20:17.246Z,12.17
2017-10-01T16:22:43.921Z,21.13
2017-10-01T16:25:10.564Z,17.10
2017-10-01T16:27:37.489Z,11.17
2017-10-01T16:30:04.145Z,12.13
2017-10-01T16:32:30.791Z,13.20
2017-10-01T16:34:57.513Z,13.10
2017-10-01T16:37:24.188Z,12.77
2017-10-01T16:39:51.120Z,12.27
2017-10-01T16:42:18.628Z,13.00
2017-10-01T16:44:45.933Z,11.87
2017-10-01T16:47:12.608Z,12.90
2017-10-01T16:49:39.264Z,11.80
2017-10-01T16:52:05.938Z,11.57
2017-10-01T16:54:32.591Z,11.30
2017-10-01T16:56:59.619Z,11.57
2017-10-01T16:59:26.275Z,12.00
2017-10-01T17:01:52.920Z,15.67
2017-10-01T17:04:19.597Z,15.50
2017-10-01T17:06:46.272Z,15.93
2017-10-01T17:09:12.920Z,16.20
2017-10-01T17:11:40.470Z,15.03
2017-10-01T17:14:07.125Z,17.07
2017-10-01T17:16:34.089Z,15.70
2017-10-01T17:19:00.742Z,14.63
2017-10-01T17:21:27.401Z,14.90
2017-10-01T17:23:54.101Z,14.27
2017-10-01T17:26:21.120Z,14.10
2017-10-01T17:28:48.006Z,16.30
2017-10-01T17:31:14.753Z,16.70
2017-10-01T17:33:41.919Z,58.70
2017-10-01T17:36:08.601Z,91.80
2017-10-01T17:38:35.253Z,24.70
2017-10-01T17:41:01.937Z,17.87
2017-10-01T17:43:28.589Z,18.93
2017-10-01T17:45:55.264Z,15.77
2017-10-01T17:48:21.915Z,15.50
2017-10-01T17:50:48.591Z,14.20
2017-10-01T17:53:15.239Z,14.77
2017-10-01T17:55:42.085Z,15.27
2017-10-01T17:58:08.740Z,22.60
2017-10-01T18:00:35.400Z,20.57
2017-10-01T18:03:02.065Z,20.40
2017-10-01T18:05:28.739Z,20.40
2017-10-01T18:07:55.597Z,20.73
2017-10-01T18:10:22.247Z,23.93
2017-10-01T18:12:48.900Z,22.50
2017-10-01T18:15:15.772Z,22.60
2017-10-01T18:17:42.444Z,22.97
2017-10-01T18:20:09.101Z,21.17
2017-10-01T18:22:35.784Z,22.00
2017-10-01T18:25:02.631Z,22.67
2017-10-01T18:27:29.550Z,28.77
2017-10-01T18:29:56.255Z,27.50
2017-10-01T18:32:23.126Z,28.33
2017-10-01T18:34:50.060Z,28.33
2017-10-01T18:37:16.729Z,27.47
2017-10-01T18:39:43.487Z,26.57
2017-10-01T18:42:10.265Z,27.13
2017-10-01T18:44:36.914Z,26.50
2017-10-01T18:47:03.563Z,26.40
2017-10-01T18:49:30.427Z,25.73
2017-10-01T18:51:57.206Z,41.30
2017-10-01T18:54:23.852Z,42.63
2017-10-01T18:56:51.065Z,27.67
2017-10-01T18:59:17.888Z,28.30
2017-10-01T19:01:44.537Z,26.77
2017-10-01T19:04:11.502Z,25.33
2017-10-01T19:06:38.189Z,26.77
2017-10-01T19:09:04.869Z,24.17
2017-10-01T19:11:31.536Z,24.13
2017-10-01T19:13:58.182Z,27.00
2017-10-01T19:16:24.828Z,27.10
2017-10-01T19:18:51.554Z,26.83
2017-10-01T19:21:18.206Z,25.00
2017-10-01T19:23:44.893Z,29.17
2017-10-01T19:26:11.598Z,28.53
2017-10-01T19:28:38.250Z,26.50
2017-10-01T19:31:05.040Z,25.67
2017-10-01T19:33:31.906Z,27.40
2017-10-01T19:35:58.554Z,29.20
2017-10-01T19:38:25.496Z,35.60
2017-10-01T19:40:52.189Z,31.80
2017-10-01T19:43:18.932Z,32.17
2017-10-01T19:45:45.609Z,31.67
2017-10-01T19:48:12.296Z,30.57
2017-10-01T19:50:38.966Z,25.57
2017-10-01T19:53:05.631Z,29.90
2017-10-01T19:55:32.597Z,27.57
2017-10-01T19:57:59.257Z,29.27
2017-10-01T20:00:25.936Z,29.50
2017-10-01T20:02:52.815Z,29.20
2017-10-01T20:05:19.476Z,27.37
2017-10-01T20:07:46.128Z,26.77
2017-10-01T20:10:12.787Z,27.27
2017-10-01T20:12:39.441Z,26.30
2017-10-01T20:15:06.114Z,25.53
2017-10-01T20:17:32.768Z,25.37
2017-10-01T20:19:59.480Z,23.17
2017-10-01T20:22:26.159Z,24.40
2017-10-01T20:24:53.102Z,26.80
2017-10-01T20:27:19.748Z,26.73
2017-10-01T20:29:46.417Z,26.40
2017-10-01T20:32:13.094Z,25.50
2017-10-01T20:34:39.969Z,24.50
2017-10-01T20:37:06.625Z,22.43
2017-10-01T20:39:33.267Z,22.60
2017-10-01T20:42:00.124Z,25.87
2017-10-01T20:44:26.812Z,24.73
2017-10-01T20:46:53.457Z,23.67
2017-10-01T20:49:20.135Z,22.03
2017-10-01T20:51:46.785Z,23.10
2017-10-01T20:54:13.424Z,22.40
2017-10-01T20:56:40.099Z,22.73
2017-10-01T20:59:06.756Z,22.57
2017-10-01T21:01:33.440Z,21.80
2017-10-01T21:04:00.096Z,23.27
2017-10-01T21:06:26.744Z,21.60
2017-10-01T21:08:53.417Z,23.23
2017-10-01T21:11:20.064Z,23.70
2017-10-01T21:13:46.728Z,23.97
2017-10-01T21:16:13.392Z,25.70
2017-10-01T21:18:40.056Z,24.33
2017-10-01T21:21:06.712Z,25.37
2017-10-01T21:23:33.364Z,25.13
2017-10-01T21:26:00.049Z,26.40
2017-10-01T21:28:26.785Z,23.40
2017-10-01T21:30:53.455Z,26.20
2017-10-01T21:33:20.117Z,24.73
2017-10-01T21:35:46.757Z,25.27
2017-10-01T21:38:13.428Z,25.23
2017-10-01T21:40:40.076Z,26.70
2017-10-01T21:43:06.754Z,24.30
2017-10-01T21:45:33.406Z,41.57
2017-10-01T21:48:00.422Z,25.80
2017-10-01T21:50:27.068Z,28.00
2017-10-01T21:52:53.711Z,25.70
2017-10-01T21:55:20.400Z,28.37
2017-10-01T21:57:47.053Z,27.80
2017-10-01T22:00:13.728Z,27.37
2017-10-01T22:02:40.473Z,29.20
2017-10-01T22:05:07.162Z,29.77
2017-10-01T22:07:33.833Z,27.47
2017-10-01T22:10:00.479Z,28.93
2017-10-01T22:12:27.148Z,29.77
2017-10-01T22:14:53.820Z,28.70
2017-10-01T22:17:20.502Z,28.53
2017-10-01T22:19:47.160Z,30.10
2017-10-01T22:22:13.975Z,30.47
2017-10-01T22:24:40.629Z,30.50
2017-10-01T22:27:07.282Z,30.20
2017-10-01T22:29:33.948Z,29.80
2017-10-01T22:32:00.608Z,28.97
2017-10-01T22:34:27.275Z,30.57
2017-10-01T22:36:53.923Z,30.20
2017-10-01T22:39:20.695Z,30.07
2017-10-01T22:41:47.348Z,27.90
2017-10-01T22:44:14.028Z,29.87
2017-10-01T22:46:40.671Z,27.43
2017-10-01T22:49:07.485Z,29.23
2017-10-01T22:51:34.136Z,27.60
2017-10-01T22:54:00.788Z,29.87
2017-10-01T22:56:27.460Z,28.77
2017-10-01T22:58:54.644Z,28.23
2017-10-01T23:01:21.314Z,28.83
2017-10-01T23:03:47.967Z,30.63
2017-10-01T23:06:14.612Z,33.27
2017-10-01T23:08:41.287Z,33.23
2017-10-01T23:11:07.944Z,33.10
2017-10-01T23:13:34.592Z,36.90
2017-10-01T23:16:01.263Z,36.33
2017-10-01T23:18:28.180Z,33.40
2017-10-01T23:20:54.824Z,35.20
2017-10-01T23:23:21.474Z,34.40
2017-10-01T23:25:48.147Z,36.40
2017-10-01T23:28:14.797Z,36.30
2017-10-01T23:30:41.457Z,38.97
2017-10-01T23:33:08.142Z,39.10
2017-10-01T23:35:34.824Z,38.60
2017-10-01T23:38:01.476Z,35.87
2017-10-01T23:40:28.149Z,40.43
2017-10-01T23:42:54.801Z,38.90
2017-10-01T23:45:21.449Z,40.30
2017-10-01T23:47:48.111Z,40.10
2017-10-01T23:50:15.011Z,42.00
2017-10-01T23:52:41.663Z,44.47
2017-10-01T23:55:08.315Z,47.40
2017-10-01T23:57:35.252Z,44.00
